createdAt,value
2023-05-13T00:02:48.930Z,7.00
2023-05-13T00:07:51.716Z,7.78
2023-05-13T00:12:54.555Z,7.55
2023-05-13T00:17:58.539Z,7.90
2023-05-13T00:23:03.156Z,7.68
2023-05-13T00:28:06.136Z,7.35
2023-05-13T00:33:10.351Z,7.80
2023-05-13T00:38:12.993Z,8.30
2023-05-13T00:43:15.550Z,8.07
2023-05-13T00:48:19.541Z,7.77
2023-05-13T00:53:22.418Z,7.90
2023-05-13T00:58:25.052Z,7.85
2023-05-13T01:03:36.051Z,9.20
2023-05-13T01:08:46.600Z,8.32
2023-05-13T01:13:54.428Z,9.35
2023-05-13T01:19:02.334Z,10.02
2023-05-13T01:24:07.362Z,9.73
2023-05-13T01:29:10.023Z,10.90
2023-05-13T01:34:16.028Z,10.33
2023-05-13T01:39:21.122Z,11.38
2023-05-13T01:44:23.726Z,11.23
2023-05-13T01:49:26.889Z,10.70
2023-05-13T01:54:30.981Z,11.88
2023-05-13T01:59:33.573Z,12.32
2023-05-13T02:04:36.142Z,13.17
2023-05-13T02:09:40.089Z,13.00
2023-05-13T02:14:42.763Z,13.77
2023-05-13T02:19:45.809Z,13.30
2023-05-13T02:24:49.799Z,14.52
2023-05-13T02:29:52.564Z,14.48
2023-05-13T02:34:55.125Z,14.93
2023-05-13T02:39:59.300Z,15.07
2023-05-13T02:45:01.895Z,15.10
2023-05-13T02:50:06.221Z,17.07
2023-05-13T02:55:11.020Z,16.30
2023-05-13T03:00:14.827Z,16.02
2023-05-13T03:05:17.402Z,16.05
2023-05-13T03:10:21.644Z,18.13
2023-05-13T03:15:24.763Z,17.35
2023-05-13T03:20:27.480Z,17.33
2023-05-13T03:25:31.478Z,18.07
2023-05-13T03:30:34.120Z,18.27
2023-05-13T03:35:36.702Z,18.87
2023-05-13T03:40:40.684Z,18.95
2023-05-13T03:45:47.573Z,19.48
2023-05-13T03:50:50.344Z,20.67
2023-05-13T03:55:54.264Z,20.17
2023-05-13T04:00:57.896Z,19.92
2023-05-13T04:06:00.522Z,20.40
2023-05-13T04:11:05.518Z,20.63
2023-05-13T04:16:09.179Z,19.58
2023-05-13T04:21:11.768Z,19.38
2023-05-13T04:26:16.800Z,19.10
2023-05-13T04:31:19.561Z,17.85
2023-05-13T04:36:22.235Z,19.08
2023-05-13T04:41:26.101Z,17.10
2023-05-13T04:46:28.820Z,15.65
2023-05-13T04:51:32.516Z,14.80
2023-05-13T04:56:36.946Z,14.82
2023-05-13T05:01:40.605Z,13.13
2023-05-13T05:06:44.271Z,12.82
2023-05-13T05:11:50.114Z,13.77
2023-05-13T05:16:52.805Z,13.48
2023-05-13T05:21:55.454Z,13.27
2023-05-13T05:26:59.483Z,13.60
2023-05-13T05:32:02.352Z,12.15
2023-05-13T05:37:05.657Z,11.68
2023-05-13T05:42:09.800Z,11.30
2023-05-13T05:47:12.472Z,11.35
2023-05-13T05:52:15.083Z,10.98
2023-05-13T05:57:19.599Z,9.90
2023-05-13T06:02:22.274Z,9.70
2023-05-13T06:07:24.976Z,9.32
2023-05-13T06:12:28.960Z,9.15
2023-05-13T06:17:31.504Z,9.05
2023-05-13T06:22:34.490Z,9.18
2023-05-13T06:27:38.572Z,9.20
2023-05-13T06:32:50.325Z,8.13
2023-05-13T06:38:00.266Z,8.48
2023-05-13T06:48:07.022Z,8.52
2023-05-13T06:53:11.301Z,7.63
2023-05-13T06:58:15.278Z,8.02
2023-05-13T07:03:18.151Z,7.18
2023-05-13T07:08:20.798Z,7.50
2023-05-13T07:13:25.050Z,7.25
2023-05-13T07:18:27.875Z,7.20
2023-05-13T07:23:31.526Z,7.55
2023-05-13T07:28:35.500Z,7.35
2023-05-13T07:33:38.094Z,6.88
2023-05-13T07:38:40.631Z,7.90
2023-05-13T07:43:45.623Z,7.15
2023-05-13T07:48:48.320Z,6.97
2023-05-13T07:53:51.548Z,7.70
2023-05-13T07:58:55.530Z,6.85
2023-05-13T08:03:58.592Z,7.05
2023-05-13T08:09:01.711Z,7.15
2023-05-13T08:14:06.615Z,7.35
2023-05-13T08:19:10.486Z,7.05
2023-05-13T08:24:13.190Z,6.97
2023-05-13T08:29:17.198Z,7.28
2023-05-13T08:34:19.852Z,7.13
2023-05-13T08:39:22.760Z,6.32
2023-05-13T08:44:29.763Z,7.35
2023-05-13T08:49:33.060Z,6.65
2023-05-13T08:54:36.169Z,5.65
2023-05-13T08:59:40.214Z,6.25
2023-05-13T09:04:44.723Z,6.85
2023-05-13T09:09:47.493Z,6.07
2023-05-13T09:14:51.717Z,6.38
2023-05-13T09:19:54.470Z,6.10
2023-05-13T09:24:57.491Z,6.50
2023-05-13T09:30:01.786Z,6.43
2023-05-13T09:35:16.569Z,6.10
2023-05-13T09:40:19.505Z,5.65
2023-05-13T09:45:24.997Z,5.90
2023-05-13T09:50:28.220Z,5.15
2023-05-13T09:55:31.233Z,5.03
2023-05-13T10:00:38.997Z,5.72
2023-05-13T10:05:42.385Z,5.40
2023-05-13T10:10:46.601Z,4.88
2023-05-13T10:15:53.028Z,4.72
2023-05-13T10:20:55.862Z,4.70
2023-05-13T10:26:00.325Z,5.22
2023-05-13T10:31:04.380Z,4.65
2023-05-13T10:36:32.555Z,5.25
2023-05-13T10:42:18.422Z,4.80
2023-05-13T10:47:22.567Z,5.10
2023-05-13T10:52:25.266Z,4.55
2023-05-13T10:57:36.907Z,4.43
2023-05-13T11:02:40.923Z,3.63
2023-05-13T11:07:56.353Z,3.35
2023-05-13T11:13:22.660Z,4.45
2023-05-13T11:18:31.996Z,4.15
2023-05-13T11:23:35.873Z,3.65
2023-05-13T11:28:58.449Z,3.60
2023-05-13T11:34:10.205Z,3.53
2023-05-13T11:39:16.027Z,3.60
2023-05-13T11:44:20.626Z,4.03
2023-05-13T11:49:40.213Z,3.53
2023-05-13T11:54:44.429Z,4.00
2023-05-13T11:59:51.766Z,3.30
2023-05-13T12:04:56.225Z,3.38
2023-05-13T12:10:00.198Z,3.30
2023-05-13T12:15:04.921Z,3.00
2023-05-13T12:20:11.485Z,3.10
2023-05-13T12:25:43.661Z,3.42
2023-05-13T12:30:52.284Z,3.58
2023-05-13T12:36:17.514Z,3.30
2023-05-13T12:41:20.228Z,2.90
2023-05-13T12:46:22.815Z,3.67
2023-05-13T12:51:26.922Z,3.28
2023-05-13T12:56:29.668Z,3.50
2023-05-13T13:01:32.488Z,2.75
2023-05-13T13:06:36.517Z,2.70
2023-05-13T13:11:39.356Z,2.95
2023-05-13T13:16:42.042Z,2.92
2023-05-13T13:21:46.024Z,3.72
2023-05-13T13:26:50.010Z,3.17
2023-05-13T13:31:52.773Z,2.75
2023-05-13T13:36:56.812Z,2.75
2023-05-13T13:41:59.396Z,3.25
2023-05-13T13:47:01.920Z,2.67
2023-05-13T13:52:06.274Z,2.70
2023-05-13T13:57:08.849Z,3.13
2023-05-13T14:02:11.444Z,3.60
2023-05-13T14:07:15.504Z,2.80
2023-05-13T14:12:18.454Z,3.10
2023-05-13T14:17:21.226Z,2.35
2023-05-13T14:22:25.694Z,3.00
2023-05-13T14:27:28.337Z,2.83
2023-05-13T14:32:30.940Z,2.42
2023-05-13T14:37:34.891Z,3.03
2023-05-13T14:42:37.533Z,3.67
2023-05-13T14:47:40.159Z,3.03
2023-05-13T14:52:44.092Z,2.97
2023-05-13T14:57:46.682Z,3.00
2023-05-13T15:02:49.293Z,2.72
2023-05-13T15:07:53.326Z,2.88
2023-05-13T15:12:55.876Z,3.08
2023-05-13T15:17:58.510Z,2.72
2023-05-13T15:23:02.490Z,3.30
2023-05-13T15:28:05.359Z,3.10
2023-05-13T15:33:08.036Z,3.35
2023-05-13T15:38:12.125Z,3.00
2023-05-13T15:43:14.806Z,3.22
2023-05-13T15:48:17.965Z,3.88
2023-05-13T15:53:22.187Z,3.58
2023-05-13T15:58:24.786Z,3.17
2023-05-13T16:03:27.329Z,3.00
2023-05-13T16:08:31.353Z,3.00
2023-05-13T16:13:33.918Z,3.50
2023-05-13T16:18:36.597Z,2.90
2023-05-13T16:23:40.611Z,2.75
2023-05-13T16:28:43.235Z,2.95
2023-05-13T16:33:45.776Z,3.00
2023-05-13T16:38:49.730Z,2.80
2023-05-13T16:43:52.274Z,3.60
2023-05-13T16:48:57.031Z,2.97
2023-05-13T16:54:01.882Z,3.08
2023-05-13T16:59:04.432Z,3.15
2023-05-13T17:04:07.054Z,2.78
2023-05-13T17:09:11.339Z,2.75
2023-05-13T17:14:13.989Z,2.88
2023-05-13T17:19:16.705Z,2.67
2023-05-13T17:24:22.224Z,3.00
2023-05-13T17:29:25.825Z,3.28
2023-05-13T17:34:28.419Z,3.58
2023-05-13T17:39:32.385Z,3.05
2023-05-13T17:44:35.027Z,3.17
2023-05-13T17:49:38.667Z,3.25
2023-05-13T17:54:42.630Z,3.40
2023-05-13T17:59:45.195Z,3.50
2023-05-13T18:04:47.786Z,2.95
2023-05-13T18:09:51.802Z,3.97
2023-05-13T18:14:54.421Z,3.40
2023-05-13T18:25:00.923Z,4.15
2023-05-13T18:30:03.639Z,3.90
2023-05-13T18:35:06.969Z,3.65
2023-05-13T18:40:12.114Z,3.53
2023-05-13T18:45:15.862Z,3.75
2023-05-13T18:50:18.469Z,4.07
2023-05-13T18:55:22.446Z,3.55
2023-05-13T19:00:25.250Z,4.15
2023-05-13T19:05:28.385Z,4.68
2023-05-13T19:10:39.068Z,4.50
2023-05-13T19:15:42.386Z,4.93
2023-05-13T19:20:46.370Z,4.72
2023-05-13T19:25:50.640Z,4.82
2023-05-13T19:30:53.853Z,4.97
2023-05-13T19:35:56.644Z,4.60
2023-05-13T19:41:00.888Z,5.40
2023-05-13T19:46:03.503Z,4.47
2023-05-13T19:51:06.188Z,4.78
2023-05-13T19:56:10.076Z,4.70
2023-05-13T20:01:14.857Z,4.10
2023-05-13T20:06:17.683Z,4.90
2023-05-13T20:11:21.641Z,5.53
2023-05-13T20:16:24.177Z,4.43
2023-05-13T20:21:26.782Z,4.32
2023-05-13T20:26:34.574Z,4.55
2023-05-13T20:31:37.206Z,4.43
2023-05-13T20:36:40.149Z,4.47
2023-05-13T20:41:44.752Z,5.38
2023-05-13T20:46:47.463Z,4.68
2023-05-13T20:51:50.378Z,5.70
2023-05-13T20:56:54.472Z,5.57
2023-05-13T21:01:57.350Z,5.55
2023-05-13T21:07:00.143Z,6.05
2023-05-13T21:12:04.465Z,6.18
2023-05-13T21:17:07.353Z,6.43
2023-05-13T21:22:10.577Z,7.72
2023-05-13T21:27:14.561Z,7.70
2023-05-13T21:32:17.592Z,9.05
2023-05-13T21:37:20.391Z,8.43
2023-05-13T21:42:24.285Z,9.45
2023-05-13T21:47:29.421Z,9.95
2023-05-13T21:52:32.105Z,10.50
2023-05-13T21:57:36.079Z,10.15
2023-05-13T22:02:38.790Z,11.82
2023-05-13T22:07:41.724Z,11.82
2023-05-13T22:12:45.723Z,11.65
2023-05-13T22:17:50.644Z,13.45
2023-05-13T22:22:53.661Z,13.65
2023-05-13T22:27:57.611Z,14.75
2023-05-13T22:33:00.252Z,15.38
2023-05-13T22:38:03.887Z,14.97
2023-05-13T22:43:07.788Z,15.88
2023-05-13T22:48:10.441Z,16.63
2023-05-13T22:53:13.011Z,15.93
2023-05-13T22:58:17.065Z,16.83
2023-05-13T23:03:19.700Z,17.10
2023-05-13T23:08:22.236Z,16.67
2023-05-13T23:13:26.447Z,16.80
2023-05-13T23:18:29.159Z,18.05
2023-05-13T23:23:31.902Z,17.67
2023-05-13T23:28:36.043Z,17.93
2023-05-13T23:33:38.661Z,18.23
2023-05-13T23:38:41.255Z,18.73
2023-05-13T23:43:45.473Z,19.33
2023-05-13T23:48:48.084Z,18.42
2023-05-13T23:53:51.877Z,20.03
2023-05-13T23:58:55.813Z,20.63
